createdAt,value
2023-11-18T09:19:40.850Z,41.78
2023-11-18T09:22:07.610Z,41.92
2023-11-18T09:24:37.600Z,39.75
2023-11-18T09:27:04.522Z,39.35
2023-11-18T09:29:31.161Z,38.70
2023-11-18T09:31:59.733Z,37.72
2023-11-18T09:34:34.248Z,34.90
2023-11-18T09:37:00.906Z,35.03
2023-11-18T09:39:30.527Z,34.30
2023-11-18T09:41:57.707Z,36.47
2023-11-18T09:44:27.864Z,33.60
2023-11-18T09:47:05.330Z,33.50
2023-11-18T09:49:44.327Z,32.53
2023-11-18T09:52:18.815Z,35.70
2023-11-18T09:54:53.495Z,34.90
2023-11-18T09:57:35.548Z,33.95
2023-11-18T10:00:23.393Z,32.63
2023-11-18T10:02:52.399Z,31.15
2023-11-18T10:05:27.602Z,33.05
2023-11-18T10:07:54.842Z,33.50
2023-11-18T10:10:22.370Z,29.83
2023-11-18T10:12:54.029Z,35.22
2023-11-18T10:15:25.894Z,32.47
2023-11-18T10:18:01.125Z,30.13
2023-11-18T10:20:40.906Z,25.90
2023-11-18T10:23:11.970Z,26.35
2023-11-18T10:25:43.420Z,23.83
2023-11-18T10:28:21.616Z,25.63
2023-11-18T10:30:48.718Z,25.02
2023-11-18T10:33:17.508Z,24.13
2023-11-18T10:35:56.551Z,22.93
2023-11-18T10:38:26.860Z,22.40
2023-11-18T10:40:56.152Z,21.92
2023-11-18T10:43:25.418Z,19.80
2023-11-18T10:45:53.711Z,19.25
2023-11-18T10:48:21.444Z,18.85
2023-11-18T10:50:50.935Z,18.98
2023-11-18T10:53:19.995Z,17.60
2023-11-18T10:55:46.978Z,18.60
2023-11-18T10:58:15.414Z,16.55
2023-11-18T11:00:49.761Z,18.92
2023-11-18T11:03:19.652Z,17.50
2023-11-18T11:05:46.867Z,19.42
2023-11-18T11:08:15.695Z,21.77
2023-11-18T11:10:45.676Z,17.45
2023-11-18T11:13:16.163Z,17.20
2023-11-18T11:15:52.144Z,17.10
2023-11-18T11:18:29.568Z,19.35
2023-11-18T11:21:16.591Z,18.75
2023-11-18T11:24:05.983Z,18.75
2023-11-18T11:26:47.779Z,17.33
2023-11-18T11:29:21.345Z,18.90
2023-11-18T11:32:04.401Z,17.25
2023-11-18T11:34:32.651Z,16.57
2023-11-18T11:37:02.569Z,14.70
2023-11-18T11:39:31.468Z,18.17
2023-11-18T11:42:00.092Z,14.35
2023-11-18T11:44:32.065Z,16.27
2023-11-18T11:47:01.923Z,17.70
2023-11-18T11:49:37.993Z,16.05
2023-11-18T11:52:28.845Z,16.80
2023-11-18T11:55:13.197Z,13.80
2023-11-18T11:57:41.028Z,14.63
2023-11-18T12:00:17.467Z,15.60
2023-11-18T12:02:53.065Z,14.68
2023-11-18T12:05:29.115Z,14.07
2023-11-18T12:07:57.157Z,12.43
2023-11-18T12:10:33.386Z,13.55
2023-11-18T12:13:17.795Z,15.00
2023-11-18T12:15:57.922Z,13.77
2023-11-18T12:18:25.475Z,15.95
2023-11-18T12:20:56.950Z,15.25
2023-11-18T12:23:27.292Z,14.48
2023-11-18T12:25:59.366Z,14.40
2023-11-18T12:28:27.896Z,14.90
2023-11-18T12:30:58.772Z,14.95
2023-11-18T12:33:31.737Z,14.70
2023-11-18T12:36:28.665Z,14.38
2023-11-18T12:39:14.856Z,16.80
2023-11-18T12:41:42.149Z,13.23
2023-11-18T12:44:18.919Z,14.57
2023-11-18T12:47:15.454Z,14.70
2023-11-18T12:49:45.397Z,13.13
2023-11-18T12:52:15.857Z,17.30
2023-11-18T12:54:44.519Z,13.25
2023-11-18T12:57:17.239Z,15.85
2023-11-18T12:59:44.065Z,16.98
2023-11-18T13:02:19.462Z,15.60
2023-11-18T13:04:50.746Z,16.98
2023-11-18T13:07:18.675Z,15.15
2023-11-18T13:09:46.850Z,16.67
2023-11-18T13:12:18.425Z,13.32
2023-11-18T13:14:46.805Z,13.52
2023-11-18T13:17:16.846Z,13.73
2023-11-18T13:19:45.193Z,17.17
2023-11-18T13:22:13.358Z,18.33
2023-11-18T13:24:41.639Z,18.60
2023-11-18T13:27:10.123Z,16.85
2023-11-18T13:29:40.244Z,17.73
2023-11-18T13:32:08.179Z,15.23
2023-11-18T13:34:38.758Z,16.40
2023-11-18T13:37:08.060Z,15.93
2023-11-18T13:39:35.393Z,15.87
2023-11-18T13:42:21.855Z,15.50
2023-11-18T13:44:49.286Z,15.70
2023-11-18T13:47:19.747Z,16.03
2023-11-18T13:49:51.263Z,18.38
2023-11-18T13:52:19.644Z,13.68
2023-11-18T13:54:48.764Z,15.27
2023-11-18T13:57:15.784Z,14.88
2023-11-18T13:59:45.146Z,13.65
2023-11-18T14:02:12.864Z,15.88
2023-11-18T14:04:41.034Z,12.23
2023-11-18T14:07:10.209Z,12.80
2023-11-18T14:09:41.027Z,15.05
2023-11-18T14:12:09.468Z,14.65
2023-11-18T14:14:36.181Z,12.30
2023-11-18T14:17:02.970Z,14.13
2023-11-18T14:19:32.587Z,12.87
2023-11-18T14:21:59.605Z,13.20
2023-11-18T14:24:29.225Z,15.00
2023-11-18T14:26:57.500Z,11.73
2023-11-18T14:29:26.618Z,18.75
2023-11-18T14:31:55.602Z,16.25
2023-11-18T14:34:22.495Z,27.40
2023-11-18T14:36:49.912Z,16.97
2023-11-18T14:39:19.230Z,19.73
2023-11-18T14:41:49.798Z,14.20
2023-11-18T14:44:16.434Z,12.20
2023-11-18T14:46:43.100Z,14.02
2023-11-18T14:49:11.550Z,11.52
2023-11-18T14:51:38.412Z,14.80
2023-11-18T14:54:06.636Z,12.52
2023-11-18T14:56:33.352Z,14.63
2023-11-18T14:59:01.089Z,13.85
2023-11-18T15:01:27.963Z,18.88
2023-11-18T15:03:54.757Z,13.48
2023-11-18T15:06:28.555Z,16.10
2023-11-18T15:08:57.790Z,13.75
2023-11-18T15:11:25.299Z,14.00
2023-11-18T15:13:53.993Z,28.73
2023-11-18T15:16:21.034Z,21.40
2023-11-18T15:18:48.580Z,17.88
2023-11-18T15:21:16.153Z,14.15
2023-11-18T15:23:43.087Z,16.63
2023-11-18T15:26:10.693Z,51.40
2023-11-18T15:28:37.470Z,37.70
2023-11-18T15:31:04.967Z,12.68
2023-11-18T15:33:32.423Z,18.08
2023-11-18T15:35:59.642Z,17.25
2023-11-18T15:38:26.591Z,12.68
2023-11-18T15:40:53.456Z,10.70
2023-11-18T15:43:20.259Z,13.18
2023-11-18T15:45:47.160Z,15.68
2023-11-18T15:48:15.448Z,11.00
2023-11-18T15:50:42.693Z,9.88
2023-11-18T15:53:09.497Z,12.45
2023-11-18T15:55:39.187Z,11.77
2023-11-18T15:58:05.943Z,12.37
2023-11-18T16:00:33.402Z,10.68
2023-11-18T16:03:02.734Z,10.82
2023-11-18T16:05:35.182Z,12.02
2023-11-18T16:08:04.003Z,10.43
2023-11-18T16:10:31.274Z,8.77
2023-11-18T16:12:59.578Z,11.03
2023-11-18T16:15:28.240Z,9.60
2023-11-18T16:17:58.142Z,8.50
2023-11-18T16:20:26.963Z,9.50
2023-11-18T16:22:58.421Z,8.60
2023-11-18T16:25:28.867Z,9.15
2023-11-18T16:27:57.774Z,7.63
2023-11-18T16:30:30.191Z,8.27
2023-11-18T16:33:04.490Z,8.52
2023-11-18T16:35:31.876Z,9.95
2023-11-18T16:38:00.582Z,8.43
2023-11-18T16:40:27.628Z,7.72
2023-11-18T16:43:00.295Z,9.00
2023-11-18T16:45:27.810Z,7.20
2023-11-18T16:47:55.337Z,6.68
2023-11-18T16:50:27.617Z,8.48
2023-11-18T16:52:55.185Z,6.50
2023-11-18T16:55:22.482Z,7.77
2023-11-18T16:57:52.801Z,7.60
2023-11-18T17:00:23.919Z,11.30
2023-11-18T17:02:55.429Z,6.00
2023-11-18T17:05:23.530Z,6.93
2023-11-18T17:07:50.437Z,9.02
2023-11-18T17:10:18.240Z,6.40
2023-11-18T17:12:46.617Z,5.25
2023-11-18T17:15:14.263Z,5.60
2023-11-18T17:17:45.159Z,10.95
2023-11-18T17:20:13.601Z,6.30
2023-11-18T17:22:42.612Z,5.28
2023-11-18T17:25:16.245Z,4.05
2023-11-18T17:27:44.309Z,4.33
2023-11-18T17:30:16.843Z,4.85
2023-11-18T17:32:45.082Z,6.53
2023-11-18T17:35:14.803Z,5.18
2023-11-18T17:37:43.134Z,4.38
2023-11-18T17:40:12.843Z,3.77
2023-11-18T17:42:44.029Z,7.47
2023-11-18T17:45:12.799Z,11.45
2023-11-18T17:47:42.370Z,14.40
2023-11-18T17:50:12.022Z,7.82
2023-11-18T17:52:43.177Z,5.90
2023-11-18T17:55:10.485Z,3.80
2023-11-18T17:57:37.256Z,3.65
2023-11-18T18:00:09.827Z,4.32
2023-11-18T18:02:37.668Z,4.55
2023-11-18T18:05:05.461Z,4.13
2023-11-18T18:07:32.141Z,4.15
2023-11-18T18:09:58.788Z,3.75
2023-11-18T18:12:25.472Z,5.80
2023-11-18T18:14:52.619Z,3.90
2023-11-18T18:17:19.553Z,3.72
2023-11-18T18:19:46.389Z,6.30
2023-11-18T18:22:13.422Z,5.00
2023-11-18T18:24:40.032Z,5.80
2023-11-18T18:27:06.706Z,3.87
2023-11-18T18:29:33.310Z,4.32
2023-11-18T18:32:03.302Z,4.28
2023-11-18T18:34:31.413Z,4.03
2023-11-18T18:36:58.053Z,4.83
2023-11-18T18:39:25.378Z,6.55
2023-11-18T18:41:52.053Z,3.42
2023-11-18T18:44:19.022Z,3.00
2023-11-18T18:46:45.663Z,3.03
2023-11-18T18:49:12.427Z,2.95
2023-11-18T18:51:39.846Z,3.10
2023-11-18T18:54:06.650Z,3.45
2023-11-18T18:56:33.340Z,4.90
2023-11-18T18:58:59.981Z,3.30
2023-11-18T19:01:27.733Z,3.78
2023-11-18T19:03:54.627Z,4.05
2023-11-18T19:06:21.377Z,4.78
2023-11-18T19:08:48.124Z,3.65
2023-11-18T19:11:15.814Z,3.50
2023-11-18T19:13:42.668Z,3.50
2023-11-18T19:16:10.757Z,3.20
2023-11-18T19:18:38.304Z,3.53
2023-11-18T19:21:05.427Z,2.90
2023-11-18T19:23:32.117Z,5.00
2023-11-18T19:25:58.822Z,5.47
2023-11-18T19:28:25.532Z,10.07
2023-11-18T19:30:52.182Z,3.20
2023-11-18T19:33:18.941Z,3.30
2023-11-18T19:35:45.543Z,4.07
2023-11-18T19:38:12.159Z,3.20
2023-11-18T19:40:38.760Z,3.38
2023-11-18T19:43:06.942Z,3.50
2023-11-18T19:45:34.324Z,3.40
2023-11-18T19:48:01.477Z,4.20
2023-11-18T19:50:28.913Z,7.07
2023-11-18T19:52:56.331Z,5.72
2023-11-18T19:55:22.960Z,8.95
2023-11-18T19:57:49.589Z,5.30
2023-11-18T20:00:21.759Z,9.35
2023-11-18T20:02:48.597Z,11.27
2023-11-18T20:05:15.434Z,5.95
2023-11-18T20:07:42.045Z,4.78
2023-11-18T20:10:10.367Z,8.27
2023-11-18T20:12:37.175Z,6.88
2023-11-18T20:15:05.763Z,6.15
2023-11-18T20:17:33.278Z,5.57
2023-11-18T20:20:00.813Z,5.20
2023-11-18T20:22:27.626Z,5.47
2023-11-18T20:24:54.304Z,6.20
2023-11-18T20:27:20.908Z,6.50
2023-11-18T20:29:47.496Z,5.70
2023-11-18T20:32:14.216Z,6.00
2023-11-18T20:34:41.032Z,7.90
2023-11-18T20:37:07.715Z,5.75
2023-11-18T20:39:34.830Z,5.65
2023-11-18T20:42:01.579Z,6.15
2023-11-18T20:44:28.968Z,7.47
2023-11-18T20:47:10.916Z,6.30
2023-11-18T20:49:37.581Z,6.38
2023-11-18T20:52:05.063Z,6.07
2023-11-18T20:54:31.697Z,5.70
2023-11-18T20:56:59.610Z,6.00
2023-11-18T20:59:26.297Z,6.10
2023-11-18T21:01:52.960Z,6.00
2023-11-18T21:04:19.702Z,6.40
2023-11-18T21:06:46.970Z,5.60
2023-11-18T21:09:14.767Z,5.55
2023-11-18T21:11:41.419Z,5.30
2023-11-18T21:14:08.045Z,5.10
2023-11-18T21:16:34.759Z,4.53
2023-11-18T21:19:02.513Z,4.77
2023-11-18T21:21:29.979Z,4.90
2023-11-18T21:23:56.607Z,4.88
2023-11-18T21:26:25.547Z,4.80
2023-11-18T21:28:52.441Z,5.50
2023-11-18T21:31:19.054Z,5.05
2023-11-18T21:33:45.835Z,5.03
2023-11-18T21:36:14.984Z,5.10
2023-11-18T21:38:41.971Z,6.10
2023-11-18T21:41:08.784Z,6.00
2023-11-18T21:43:35.675Z,5.88
2023-11-18T21:46:02.390Z,6.20
2023-11-18T21:48:28.977Z,5.80
2023-11-18T21:50:55.641Z,6.10
2023-11-18T21:53:22.344Z,7.80
2023-11-18T21:55:53.982Z,6.00
2023-11-18T21:58:22.341Z,6.05
2023-11-18T22:00:49.504Z,6.53
2023-11-18T22:03:16.246Z,6.88
2023-11-18T22:05:43.413Z,5.40
2023-11-18T22:08:10.068Z,5.72
2023-11-18T22:10:36.681Z,6.67
2023-11-18T22:13:03.885Z,5.10
2023-11-18T22:15:30.466Z,4.50
2023-11-18T22:17:57.093Z,5.43
2023-11-18T22:20:26.348Z,5.38
2023-11-18T22:22:53.071Z,6.10
2023-11-18T22:25:19.777Z,6.05
2023-11-18T22:27:48.245Z,6.20
2023-11-18T22:30:16.885Z,5.80
2023-11-18T22:32:43.599Z,6.30
2023-11-18T22:35:10.512Z,6.50
2023-11-18T22:37:37.207Z,6.43
2023-11-18T22:40:09.959Z,6.30
2023-11-18T22:42:38.786Z,6.70
2023-11-18T22:45:06.272Z,6.28
2023-11-18T22:47:33.111Z,7.15
2023-11-18T22:50:00.874Z,7.55
2023-11-18T22:52:27.821Z,7.85
2023-11-18T22:54:54.518Z,7.40
2023-11-18T22:57:21.122Z,8.70
2023-11-18T22:59:47.722Z,8.07
2023-11-18T23:02:17.352Z,7.10
2023-11-18T23:04:46.234Z,7.25
2023-11-18T23:07:15.504Z,7.90
2023-11-18T23:09:42.563Z,7.63
2023-11-18T23:12:10.408Z,6.78
2023-11-18T23:14:37.769Z,8.23
2023-11-18T23:19:41.823Z,8.75
2023-11-18T23:22:14.944Z,7.40
2023-11-18T23:24:41.649Z,6.50
2023-11-18T23:27:08.303Z,6.95
2023-11-18T23:29:35.077Z,8.32
2023-11-18T23:32:01.880Z,5.90
2023-11-18T23:34:28.548Z,7.00
2023-11-18T23:36:55.190Z,6.35
2023-11-18T23:39:29.356Z,5.97
2023-11-18T23:41:56.661Z,5.60
2023-11-18T23:44:25.202Z,5.72
2023-11-18T23:46:53.051Z,5.18
2023-11-18T23:49:20.020Z,7.65
2023-11-18T23:51:47.007Z,6.35
2023-11-18T23:54:13.782Z,6.70
2023-11-18T23:56:40.692Z,7.63
2023-11-18T23:59:08.172Z,7.78
